Time;durP1;ratioP1;P1;durP2;ratioP2;P2;SDS_P1;SDS_P2;PMS_P1;PMS_P2;Temp;Humidity;BMP_temperature;BMP_pressure;BME280_temperature;BME280_humidity;BME280_pressure;Samples;Min_cycle;Max_cycle;Signal;HPM_P1;HPM_P2
2021/06/18 00:00:25;;;;;;;9.55;6.03;;;25.60;99.90;;;;;;5072583;28;20056;-66
2021/06/18 00:02:51;;;;;;;;;;;25.60;99.90;;;;;;5073262;28;20037;-66
2021/06/18 00:05:18;;;;;;;11.75;7.72;;;25.40;99.90;;;;;;5073728;28;19919;-66
2021/06/18 00:07:45;;;;;;;10.88;8.52;;;25.40;99.90;;;;;;5074024;28;20480;-65
2021/06/18 00:10:15;;;;;;;13.85;8.30;;;25.20;99.90;;;;;;5072566;28;20036;-65
2021/06/18 00:12:41;;;;;;;13.32;9.02;;;25.20;99.90;;;;;;5073914;28;20039;-65
2021/06/18 00:15:10;;;;;;;11.65;8.10;;;25.00;99.90;;;;;;5072329;28;20040;-65
2021/06/18 00:17:36;;;;;;;11.82;7.35;;;25.00;99.90;;;;;;5072605;28;20025;-66
2021/06/18 00:20:05;;;;;;;14.77;7.90;;;24.60;99.90;;;;;;5072490;28;20038;-66
2021/06/18 00:22:31;;;;;;;11.25;7.88;;;24.50;99.90;;;;;;5072291;28;20504;-64
2021/06/18 00:24:57;;;;;;;14.00;8.77;;;24.40;99.90;;;;;;5072245;28;20048;-64
2021/06/18 00:27:25;;;;;;;14.85;8.10;;;24.50;99.90;;;;;;5072372;28;20444;-64
2021/06/18 00:29:51;;;;;;;14.68;7.97;;;24.70;99.90;;;;;;5072156;28;20401;-65
2021/06/18 00:32:17;;;;;;;12.68;8.40;;;24.60;99.90;;;;;;5072243;28;20036;-65
2021/06/18 00:34:43;;;;;;;18.17;9.75;;;24.30;99.90;;;;;;5072221;28;20052;-65
2021/06/18 00:37:09;;;;;;;12.90;7.82;;;24.30;99.90;;;;;;5073116;28;20488;-65
2021/06/18 00:39:35;;;;;;;10.95;5.85;;;24.30;99.90;;;;;;5073548;28;20063;-65
2021/06/18 00:42:02;;;;;;;10.48;6.65;;;24.10;99.90;;;;;;5073361;28;20028;-64
2021/06/18 00:44:28;;;;;;;11.10;6.60;;;24.20;99.90;;;;;;5073258;28;20469;-65
2021/06/18 00:46:54;;;;;;;7.35;5.43;;;24.00;99.90;;;;;;5072956;28;20035;-65
2021/06/18 00:49:22;;;;;;;9.95;4.45;;;24.10;99.90;;;;;;5071905;28;20040;-65
2021/06/18 00:51:49;;;;;;;11.13;4.30;;;24.10;99.90;;;;;;5071870;28;20072;-65
2021/06/18 00:54:27;;;;;;;10.75;4.65;;;24.10;99.90;;;;;;5071523;28;20492;-65
2021/06/18 00:57:01;;;;;;;9.45;4.15;;;24.20;99.90;;;;;;5071759;28;20111;-65
2021/06/18 00:59:27;;;;;;;6.22;3.97;;;24.20;99.90;;;;;;5072829;28;20067;-64
2021/06/18 01:01:55;;;;;;;5.55;3.78;;;24.20;99.90;;;;;;5071798;28;20037;-64
2021/06/18 01:04:25;;;;;;;7.53;3.90;;;24.20;99.50;;;;;;5072573;28;20114;-64
2021/06/18 01:07:16;;;;;;;7.05;4.00;;;24.30;99.30;;;;;;5055144;28;20127;-64
2021/06/18 01:09:48;;;;;;;;;;;24.30;98.90;;;;;;5071074;28;20028;-64
2021/06/18 01:12:19;;;;;;;6.10;4.15;;;24.40;99.00;;;;;;5071187;28;19913;-65
2021/06/18 01:15:25;;;;;;;11.23;4.85;;;24.40;99.00;;;;;;5055304;28;20036;-65
2021/06/18 01:18:03;;;;;;;7.85;4.10;;;24.50;99.40;;;;;;5071991;28;20139;-62
2021/06/18 01:21:17;;;;;;;6.68;5.07;;;24.60;99.80;;;;;;5072367;28;20089;-65
2021/06/18 01:23:58;;;;;;;5.97;4.40;;;24.60;99.90;;;;;;5072135;28;20048;-65
2021/06/18 01:26:24;;;;;;;;;;;24.60;99.90;;;;;;5072801;28;20533;-65
2021/06/18 01:28:58;;;;;;;8.20;5.00;;;24.60;99.90;;;;;;5071132;28;19999;-65
2021/06/18 01:31:40;;;;;;;7.90;4.90;;;24.60;99.90;;;;;;5070919;28;20048;-65
2021/06/18 01:34:30;;;;;;;9.05;5.38;;;24.50;99.90;;;;;;5071248;28;20064;-66
2021/06/18 01:37:04;;;;;;;6.78;5.63;;;24.40;99.90;;;;;;5054581;28;20670;-66
2021/06/18 01:39:32;;;;;;;9.60;5.82;;;24.00;99.90;;;;;;5070967;28;20039;-66
2021/06/18 01:42:03;;;;;;;7.38;5.47;;;23.40;99.90;;;;;;5071462;28;20449;-65
2021/06/18 01:44:30;;;;;;;7.45;4.90;;;23.20;99.90;;;;;;5071372;28;20039;-65
2021/06/18 01:46:59;;;;;;;9.05;5.22;;;23.00;99.90;;;;;;5071171;28;20054;-66
2021/06/18 01:49:27;;;;;;;10.13;5.70;;;23.20;99.90;;;;;;5071157;28;20063;-65
2021/06/18 01:51:55;;;;;;;7.35;5.38;;;23.30;99.90;;;;;;5070811;28;20068;-66
2021/06/18 01:54:27;;;;;;;8.43;5.72;;;23.40;99.90;;;;;;5071070;28;20032;-66
2021/06/18 01:56:55;;;;;;;7.95;5.55;;;23.40;99.90;;;;;;5071239;28;20047;-64
2021/06/18 01:59:23;;;;;;;10.43;5.53;;;23.40;99.90;;;;;;5071008;28;20120;-65
2021/06/18 02:01:50;;;;;;;6.70;5.50;;;23.50;99.90;;;;;;5070882;28;20033;-65
2021/06/18 02:04:17;;;;;;;9.07;5.22;;;23.50;99.90;;;;;;5070933;28;20423;-65
2021/06/18 02:06:45;;;;;;;6.72;5.57;;;23.50;99.90;;;;;;5071957;28;20033;-64
2021/06/18 02:09:15;;;;;;;10.68;5.65;;;23.60;99.90;;;;;;5070470;28;20037;-64
2021/06/18 02:11:42;;;;;;;7.75;6.10;;;23.80;99.90;;;;;;5070657;28;20028;-66
2021/06/18 02:14:13;;;;;;;8.77;5.80;;;23.90;99.90;;;;;;5054064;28;20124;-64
2021/06/18 02:16:43;;;;;;;7.28;5.43;;;23.80;99.90;;;;;;5070881;28;20033;-65
2021/06/18 02:19:13;;;;;;;10.93;5.60;;;23.90;99.90;;;;;;5072196;28;20064;-65
2021/06/18 02:21:40;;;;;;;6.68;4.82;;;23.90;99.90;;;;;;5072931;28;20064;-64
2021/06/18 02:24:07;;;;;;;7.22;4.80;;;23.80;99.90;;;;;;5058085;28;20082;-64
2021/06/18 02:26:33;;;;;;;10.73;6.30;;;23.70;99.90;;;;;;5075617;28;20032;-64
2021/06/18 02:28:59;;;;;;;6.47;4.55;;;23.70;99.90;;;;;;5074579;28;20056;-65
2021/06/18 02:31:27;;;;;;;7.03;4.97;;;23.70;99.90;;;;;;5074306;28;20148;-65
2021/06/18 02:33:53;;;;;;;6.25;4.20;;;23.60;99.90;;;;;;5074229;28;20377;-65
2021/06/18 02:36:20;;;;;;;9.07;4.40;;;23.50;99.90;;;;;;5057559;28;20032;-64
2021/06/18 02:38:48;;;;;;;9.40;4.70;;;23.50;99.90;;;;;;5075668;28;20032;-64
2021/06/18 02:41:14;;;;;;;7.57;5.45;;;23.50;99.90;;;;;;5075769;28;20029;-63
2021/06/18 02:43:40;;;;;;;7.72;5.00;;;23.20;99.90;;;;;;5075282;28;20477;-64
2021/06/18 02:46:06;;;;;;;9.80;5.03;;;23.00;99.90;;;;;;5075595;28;20036;-64
2021/06/18 02:48:46;;;;;;;10.57;5.47;;;23.00;99.90;;;;;;5057193;28;20055;-65
2021/06/18 02:51:24;;;;;;;14.38;9.73;;;22.90;99.90;;;;;;5074455;28;20116;-63
2021/06/18 02:54:31;;;;;;;18.30;11.93;;;22.50;99.90;;;;;;5074208;28;20112;-63
2021/06/18 02:57:02;;;;;;;16.73;10.85;;;22.60;99.90;;;;;;5056840;28;20036;-65
2021/06/18 02:59:36;;;;;;;23.80;12.40;;;22.70;99.90;;;;;;5057439;28;20046;-64
2021/06/18 03:02:05;;;;;;;18.35;13.07;;;22.60;99.90;;;;;;5074276;28;20119;-66
2021/06/18 03:04:36;;;;;;;18.35;12.50;;;22.80;99.90;;;;;;5073883;28;20021;-64
2021/06/18 03:07:15;;;;;;;20.48;12.90;;;22.80;99.90;;;;;;5074048;28;20487;-65
2021/06/18 03:09:54;;;;;;;16.30;12.32;;;22.90;99.90;;;;;;5073821;28;20051;-65
2021/06/18 03:12:24;;;;;;;21.83;13.23;;;23.00;99.90;;;;;;5057056;28;20032;-65
2021/06/18 03:14:52;;;;;;;15.82;12.00;;;23.00;99.90;;;;;;5075176;28;20093;-64
2021/06/18 03:17:21;;;;;;;18.35;11.93;;;23.00;99.90;;;;;;5074985;28;20028;-64
2021/06/18 03:19:57;;;;;;;24.63;13.10;;;23.10;99.90;;;;;;5073476;28;20029;-64
2021/06/18 03:22:25;;;;;;;15.38;11.55;;;23.10;99.90;;;;;;5073791;28;20058;-64
2021/06/18 03:24:54;;;;;;;14.68;11.23;;;23.10;99.90;;;;;;5073424;28;20393;-64
2021/06/18 03:27:22;;;;;;;17.80;11.73;;;23.20;99.90;;;;;;5074886;28;20037;-64
2021/06/18 03:29:51;;;;;;;16.55;11.02;;;23.10;99.90;;;;;;5074436;28;20151;-64
2021/06/18 03:32:20;;;;;;;19.35;11.80;;;23.20;99.90;;;;;;5072720;28;20059;-64
2021/06/18 03:34:46;;;;;;;17.13;11.93;;;23.20;99.90;;;;;;5073219;28;20059;-64
2021/06/18 03:37:12;;;;;;;15.77;11.63;;;23.30;99.90;;;;;;5073613;28;20064;-66
2021/06/18 03:39:39;;;;;;;18.48;10.40;;;23.30;99.90;;;;;;5039769;28;20029;-63
2021/06/18 03:42:06;;;;;;;12.82;8.50;;;23.30;99.90;;;;;;5074555;28;20025;-64
2021/06/18 03:44:32;;;;;;;16.75;9.93;;;23.10;99.90;;;;;;5073253;28;20033;-64
2021/06/18 03:46:59;;;;;;;14.68;9.93;;;23.20;99.90;;;;;;5073280;28;20182;-62
2021/06/18 03:49:27;;;;;;;15.98;9.88;;;23.10;99.90;;;;;;5071132;28;20390;-62
2021/06/18 03:51:55;;;;;;;16.27;9.75;;;23.10;99.90;;;;;;5073202;28;20032;-59
2021/06/18 03:54:22;;;;;;;12.35;8.60;;;23.00;99.90;;;;;;5074112;28;20033;-59
2021/06/18 03:56:50;;;;;;;18.05;9.02;;;23.00;99.90;;;;;;5073122;28;20047;-59
2021/06/18 03:59:18;;;;;;;9.82;6.82;;;23.10;99.90;;;;;;5072834;28;20059;-59
2021/06/18 04:01:53;;;;;;;11.13;7.82;;;23.20;99.90;;;;;;5074087;28;20112;-61
2021/06/18 04:04:21;;;;;;;12.27;7.47;;;23.20;99.90;;;;;;5058042;28;20065;-61
2021/06/18 04:06:48;;;;;;;14.20;6.55;;;23.20;99.90;;;;;;5072715;28;20097;-61
2021/06/18 04:09:16;;;;;;;10.60;6.93;;;23.30;99.90;;;;;;5072087;28;20082;-60
2021/06/18 04:11:44;;;;;;;11.02;6.43;;;23.30;99.90;;;;;;5072595;28;20040;-60
2021/06/18 04:14:11;;;;;;;9.55;5.63;;;23.10;99.90;;;;;;5072545;28;20033;-60
2021/06/18 04:16:38;;;;;;;9.63;6.40;;;23.00;99.90;;;;;;5073754;28;20512;-60
2021/06/18 04:19:07;;;;;;;8.23;5.97;;;22.80;99.90;;;;;;5072439;28;20473;-60
2021/06/18 04:21:35;;;;;;;10.45;6.00;;;22.70;99.90;;;;;;5072401;28;20024;-61
2021/06/18 04:24:01;;;;;;;10.00;6.20;;;22.60;99.90;;;;;;5072490;28;20113;-62
2021/06/18 04:26:26;;;;;;;8.40;5.25;;;22.40;99.90;;;;;;5073548;28;20120;-64
2021/06/18 04:28:53;;;;;;;10.23;6.07;;;22.40;99.90;;;;;;5073345;28;20060;-60
2021/06/18 04:31:19;;;;;;;8.80;6.60;;;22.40;99.90;;;;;;5073190;28;20044;-64
2021/06/18 04:33:45;;;;;;;9.27;6.38;;;22.40;99.90;;;;;;5072037;28;20085;-64
2021/06/18 04:36:10;;;;;;;10.68;6.00;;;22.40;99.90;;;;;;5073089;28;20108;-64
2021/06/18 04:38:38;;;;;;;12.10;6.70;;;22.50;99.90;;;;;;5071686;28;20096;-62
2021/06/18 04:41:04;;;;;;;11.45;6.88;;;22.50;99.90;;;;;;5064006;28;20025;-62
2021/06/18 04:43:30;;;;;;;8.20;6.10;;;22.40;99.90;;;;;;5053185;28;20029;-62
2021/06/18 04:45:56;;;;;;;9.35;6.20;;;22.50;99.90;;;;;;5053221;28;20070;-61
2021/06/18 04:48:22;;;;;;;9.63;6.55;;;22.40;99.90;;;;;;5068688;28;20187;-63
2021/06/18 04:50:49;;;;;;;9.25;6.35;;;22.30;99.90;;;;;;5070322;28;20021;-62
2021/06/18 04:53:16;;;;;;;9.20;7.13;;;22.30;99.90;;;;;;5072788;28;20029;-64
2021/06/18 04:55:42;;;;;;;10.48;7.10;;;22.40;99.90;;;;;;5071711;28;20440;-63
2021/06/18 04:58:11;;;;;;;8.43;6.50;;;22.50;99.90;;;;;;5073200;28;20037;-63
2021/06/18 05:00:37;;;;;;;12.75;6.75;;;22.90;99.90;;;;;;5072545;28;20028;-64
2021/06/18 05:03:03;;;;;;;10.27;6.20;;;23.00;99.90;;;;;;5072923;28;20033;-63
2021/06/18 05:05:29;;;;;;;11.52;6.63;;;23.10;99.90;;;;;;5072696;28;20078;-60
2021/06/18 05:07:56;;;;;;;10.20;7.75;;;23.10;99.90;;;;;;5072593;28;20397;-61
2021/06/18 05:10:24;;;;;;;11.55;7.10;;;23.00;99.90;;;;;;5071654;28;20071;-61
2021/06/18 05:12:50;;;;;;;9.95;7.30;;;22.90;99.90;;;;;;5072824;28;20128;-60
2021/06/18 05:15:17;;;;;;;11.18;6.80;;;22.90;99.90;;;;;;5054646;28;20024;-62
2021/06/18 05:17:44;;;;;;;14.20;7.15;;;22.90;99.90;;;;;;5072572;28;20081;-62
2021/06/18 05:20:12;;;;;;;11.18;7.32;;;22.90;99.90;;;;;;5072320;28;20035;-62
2021/06/18 05:22:38;;;;;;;17.05;7.38;;;23.00;99.90;;;;;;5072362;28;20119;-62
2021/06/18 05:25:05;;;;;;;15.93;8.15;;;23.00;99.90;;;;;;5072453;28;20064;-62
2021/06/18 05:27:31;;;;;;;11.15;7.07;;;23.00;99.90;;;;;;5072217;28;20037;-63
2021/06/18 05:29:57;;;;;;;8.98;6.65;;;23.10;99.90;;;;;;5070766;28;20122;-63
2021/06/18 05:32:23;;;;;;;11.10;7.40;;;23.20;99.90;;;;;;5071099;28;20433;-61
2021/06/18 05:34:48;;;;;;;13.00;7.88;;;23.20;99.90;;;;;;5072256;28;20151;-61
2021/06/18 05:37:14;;;;;;;11.07;8.05;;;23.30;99.90;;;;;;5072225;28;20089;-61
2021/06/18 05:39:42;;;;;;;9.02;7.68;;;23.40;99.90;;;;;;5071163;28;20025;-60
2021/06/18 05:42:10;;;;;;;10.95;7.47;;;23.40;99.90;;;;;;5054494;28;20028;-61
2021/06/18 05:44:35;;;;;;;11.75;7.22;;;23.40;99.90;;;;;;5072397;28;20417;-61
2021/06/18 05:47:01;;;;;;;11.98;7.25;;;23.50;99.90;;;;;;5070805;28;20024;-60
2021/06/18 05:49:27;;;;;;;16.00;7.60;;;23.50;99.90;;;;;;5065486;28;20124;-61
2021/06/18 05:51:53;;;;;;;11.82;7.10;;;23.60;99.90;;;;;;5034517;28;20022;-61
2021/06/18 05:54:19;;;;;;;10.23;7.53;;;23.70;99.90;;;;;;5052040;28;20056;-62
2021/06/18 05:56:45;;;;;;;14.45;7.72;;;23.70;99.90;;;;;;5048667;28;20063;-60
2021/06/18 05:59:10;;;;;;;9.77;7.45;;;23.80;99.90;;;;;;5051227;28;20064;-61
2021/06/18 06:01:36;;;;;;;14.80;7.50;;;23.90;99.90;;;;;;5055950;28;20576;-61
2021/06/18 06:04:02;;;;;;;15.50;8.02;;;23.90;99.90;;;;;;5071985;28;20038;-61
2021/06/18 06:06:29;;;;;;;9.20;6.70;;;24.00;99.90;;;;;;5071909;28;20032;-61
2021/06/18 06:08:56;;;;;;;10.57;6.97;;;24.10;99.90;;;;;;5071825;28;20081;-61
2021/06/18 06:11:24;;;;;;;14.18;7.75;;;24.30;99.90;;;;;;5071742;28;20546;-61
2021/06/18 06:13:58;;;;;;;9.85;7.03;;;24.30;99.90;;;;;;5055089;28;20037;-61
2021/06/18 06:16:23;;;;;;;13.50;8.00;;;24.40;99.90;;;;;;5066422;28;20025;-61
2021/06/18 06:18:49;;;;;;;15.75;6.95;;;24.50;99.90;;;;;;5068621;28;20040;-61
2021/06/18 06:21:15;;;;;;;12.55;7.15;;;24.60;99.90;;;;;;5071973;28;20070;-60
2021/06/18 06:23:41;;;;;;;11.82;7.10;;;24.60;99.90;;;;;;5072022;28;20029;-61
2021/06/18 06:26:08;;;;;;;14.45;6.93;;;24.70;99.90;;;;;;5071738;28;20043;-60
2021/06/18 06:28:35;;;;;;;8.45;6.75;;;24.90;99.90;;;;;;5071505;28;20068;-60
2021/06/18 06:31:00;;;;;;;13.15;7.55;;;25.10;99.90;;;;;;5071425;28;20717;-61
2021/06/18 06:33:26;;;;;;;11.88;6.72;;;25.30;99.90;;;;;;5071909;28;20116;-61
2021/06/18 06:35:52;;;;;;;11.40;7.15;;;25.40;99.90;;;;;;5071548;28;20167;-61
2021/06/18 06:38:20;;;;;;;9.90;6.90;;;25.60;99.90;;;;;;5071891;28;20047;-61
2021/06/18 06:40:50;;;;;;;10.90;7.00;;;25.80;99.90;;;;;;5070290;28;20024;-62
2021/06/18 06:43:16;;;;;;;11.07;6.93;;;25.90;99.90;;;;;;5072052;28;20120;-62
2021/06/18 06:45:42;;;;;;;22.08;6.82;;;26.00;99.90;;;;;;5071783;28;20078;-61
2021/06/18 06:48:09;;;;;;;9.68;6.35;;;26.20;99.90;;;;;;5071772;28;20043;-60
2021/06/18 06:50:35;;;;;;;8.88;5.88;;;26.40;99.90;;;;;;5071493;28;20032;-61
2021/06/18 06:53:00;;;;;;;12.40;6.95;;;26.60;99.90;;;;;;5071425;28;20032;-61
2021/06/18 06:55:26;;;;;;;25.50;7.72;;;26.70;99.90;;;;;;5071645;28;20028;-61
2021/06/18 06:57:52;;;;;;;11.38;6.47;;;26.70;99.90;;;;;;5071426;28;20047;-61
2021/06/18 07:00:19;;;;;;;13.80;6.97;;;26.80;99.90;;;;;;5071539;28;20056;-59
2021/06/18 07:02:45;;;;;;;16.95;7.13;;;26.90;99.90;;;;;;5071442;28;20028;-59
2021/06/18 07:05:12;;;;;;;10.40;6.38;;;26.70;99.90;;;;;;5071597;28;20074;-64
2021/06/18 07:07:38;;;;;;;15.70;6.45;;;26.80;99.90;;;;;;5071792;28;20032;-65
2021/06/18 07:10:06;;;;;;;12.65;7.22;;;26.80;99.90;;;;;;5075305;28;20078;-65
2021/06/18 07:12:32;;;;;;;9.68;6.22;;;26.90;99.90;;;;;;5073752;28;20033;-65
2021/06/18 07:14:58;;;;;;;10.27;5.80;;;27.10;99.90;;;;;;5075126;28;20024;-65
2021/06/18 07:17:25;;;;;;;12.23;6.25;;;27.10;99.90;;;;;;5073716;28;20078;-64
2021/06/18 07:19:54;;;;;;;8.95;5.38;;;27.10;99.90;;;;;;5074692;28;20031;-63
2021/06/18 07:22:21;;;;;;;12.05;6.28;;;27.30;99.90;;;;;;5073417;28;20136;-64
2021/06/18 07:24:49;;;;;;;11.85;6.32;;;27.40;99.60;;;;;;5074659;28;20040;-65
2021/06/18 07:27:16;;;;;;;16.05;7.35;;;27.40;99.50;;;;;;5074809;28;20037;-66
2021/06/18 07:29:43;;;;;;;15.23;7.68;;;27.40;99.60;;;;;;5070603;28;20398;-64
2021/06/18 07:32:10;;;;;;;9.60;6.28;;;27.50;99.10;;;;;;5070205;28;20108;-64
2021/06/18 07:34:36;;;;;;;15.38;7.68;;;27.60;99.00;;;;;;5054306;28;20029;-65
2021/06/18 07:37:04;;;;;;;10.52;6.68;;;27.60;99.00;;;;;;5080338;28;20099;-65
2021/06/18 07:39:30;;;;;;;12.40;6.78;;;27.60;98.90;;;;;;5072939;28;20044;-64
2021/06/18 07:41:55;;;;;;;13.32;6.82;;;27.50;99.00;;;;;;5074415;28;20031;-65
2021/06/18 07:44:21;;;;;;;12.60;8.57;;;27.60;99.00;;;;;;5074656;28;20029;-64
2021/06/18 07:46:47;;;;;;;12.35;6.78;;;27.70;98.50;;;;;;5068061;28;20029;-64
2021/06/18 07:49:13;;;;;;;13.40;6.43;;;27.80;98.20;;;;;;5067350;28;20048;-64
2021/06/18 07:51:39;;;;;;;16.15;6.85;;;27.70;98.00;;;;;;5074113;28;20033;-65
2021/06/18 07:54:05;;;;;;;8.02;6.22;;;27.80;98.20;;;;;;5073955;28;20025;-65
2021/06/18 07:56:33;;;;;;;8.65;6.65;;;27.90;98.20;;;;;;5073163;28;20078;-66
2021/06/18 07:59:00;;;;;;;11.23;6.40;;;27.90;97.50;;;;;;5073881;28;20029;-62
2021/06/18 08:01:26;;;;;;;9.05;5.85;;;28.00;97.90;;;;;;5072718;28;20029;-62
2021/06/18 08:03:52;;;;;;;10.23;6.13;;;28.20;97.60;;;;;;5073742;28;20036;-62
2021/06/18 08:06:18;;;;;;;9.18;6.35;;;28.20;97.20;;;;;;5074137;28;20024;-63
2021/06/18 08:08:45;;;;;;;9.13;5.60;;;28.30;96.80;;;;;;5073889;28;20071;-62
2021/06/18 08:11:12;;;;;;;10.75;6.90;;;28.40;96.60;;;;;;5073637;28;20112;-61
2021/06/18 08:13:38;;;;;;;9.98;6.32;;;28.40;96.70;;;;;;5073743;28;20115;-63
2021/06/18 08:16:05;;;;;;;7.50;5.63;;;28.30;96.40;;;;;;5071033;28;20652;-62
2021/06/18 08:18:34;;;;;;;8.63;6.20;;;28.40;96.20;;;;;;5072447;28;20108;-62
2021/06/18 08:21:01;;;;;;;12.95;6.90;;;28.40;96.20;;;;;;5071180;28;20119;-62
2021/06/18 08:23:27;;;;;;;8.43;6.15;;;28.40;96.10;;;;;;5073257;28;20064;-62
2021/06/18 08:25:53;;;;;;;9.68;6.28;;;28.60;95.90;;;;;;5073698;28;20052;-62
2021/06/18 08:28:19;;;;;;;9.90;5.68;;;28.70;95.70;;;;;;5073795;28;20044;-62
2021/06/18 08:30:45;;;;;;;9.93;5.75;;;28.80;95.30;;;;;;5072082;28;20478;-62
2021/06/18 08:33:11;;;;;;;10.85;6.00;;;29.00;95.20;;;;;;5073624;28;20119;-62
2021/06/18 08:35:36;;;;;;;11.32;5.70;;;29.10;95.00;;;;;;5073243;28;20068;-63
2021/06/18 08:38:03;;;;;;;9.40;6.20;;;29.10;94.70;;;;;;5073487;28;20048;-61
2021/06/18 08:40:30;;;;;;;8.93;5.85;;;29.20;94.90;;;;;;5073558;28;20082;-62
2021/06/18 08:42:57;;;;;;;11.85;6.22;;;29.20;94.60;;;;;;5073343;28;20039;-62
2021/06/18 08:45:23;;;;;;;8.60;6.22;;;29.20;94.50;;;;;;5073331;28;20032;-62
2021/06/18 08:47:50;;;;;;;9.00;5.97;;;29.40;94.20;;;;;;5071970;28;20112;-62
2021/06/18 08:50:23;;;;;;;10.70;6.28;;;29.50;93.90;;;;;;5071975;28;20026;-61
2021/06/18 08:52:58;;;;;;;10.32;6.10;;;29.60;93.70;;;;;;5071641;28;20078;-63
2021/06/18 08:55:27;;;;;;;9.30;5.60;;;29.80;93.50;;;;;;5073339;28;20024;-62
2021/06/18 08:57:59;;;;;;;9.82;5.30;;;29.80;93.80;;;;;;5071723;28;20107;-63
2021/06/18 09:00:27;;;;;;;9.57;6.15;;;30.20;93.60;;;;;;5073142;28;20029;-63
2021/06/18 09:02:55;;;;;;;8.73;5.88;;;30.50;93.20;;;;;;5072890;28;20082;-63
2021/06/18 09:05:22;;;;;;;9.27;6.30;;;30.50;92.80;;;;;;5071585;28;20025;-63
2021/06/18 09:08:01;;;;;;;9.13;5.55;;;30.50;93.10;;;;;;5072884;28;20481;-63
2021/06/18 09:10:40;;;;;;;9.48;5.90;;;30.60;93.20;;;;;;5071781;28;20032;-63
2021/06/18 09:13:15;;;;;;;12.13;6.60;;;31.00;92.90;;;;;;5072870;28;20115;-63
2021/06/18 09:15:44;;;;;;;11.35;6.70;;;31.10;92.70;;;;;;5072069;28;20048;-61
2021/06/18 09:18:35;;;;;;;14.88;6.57;;;30.90;92.60;;;;;;5072575;28;20381;-63
2021/06/18 09:21:10;;;;;;;11.40;5.68;;;31.00;92.80;;;;;;5071449;28;20041;-62
2021/06/18 09:23:39;;;;;;;11.07;6.13;;;31.30;92.00;;;;;;5072511;28;20056;-63
2021/06/18 09:26:35;;;;;;;8.23;5.57;;;31.50;91.90;;;;;;5072306;28;20036;-63
2021/06/18 09:29:17;;;;;;;6.13;5.45;;;31.60;90.80;;;;;;5072504;28;20040;-62
2021/06/18 09:32:12;;;;;;;8.63;5.50;;;31.50;90.50;;;;;;5071399;28;20052;-64
2021/06/18 09:37:20;;;;;;;10.85;5.35;;;31.60;90.30;;;;;;5067915;28;20112;-63
2021/06/18 09:40:15;;;;;;;5.35;4.30;;;31.90;90.00;;;;;;5069219;28;20111;-63
2021/06/18 09:43:06;;;;;;;6.20;4.68;;;32.10;88.00;;;;;;5071124;28;20040;-63
2021/06/18 09:45:38;;;;;;;6.45;5.32;;;32.30;87.90;;;;;;5072439;28;20071;-63
2021/06/18 09:48:18;;;;;;;5.88;5.20;;;32.40;88.20;;;;;;5071199;28;20056;-63
2021/06/18 09:50:49;;;;;;;8.27;5.30;;;32.40;86.70;;;;;;5072272;28;20020;-63
2021/06/18 09:53:21;;;;;;;9.10;4.47;;;32.20;87.00;;;;;;5072323;28;20081;-64
2021/06/18 09:56:07;;;;;;;6.95;4.95;;;32.30;86.30;;;;;;5071174;28;20032;-63
2021/06/18 09:58:42;;;;;;;8.25;5.10;;;32.50;85.60;;;;;;5070798;28;20550;-62
2021/06/18 10:01:31;;;;;;;6.32;5.00;;;32.70;86.20;;;;;;5071142;28;20047;-62
2021/06/18 10:04:10;;;;;;;7.05;5.32;;;32.50;87.20;;;;;;5070674;28;20101;-63
2021/06/18 10:06:38;;;;;;;8.65;4.80;;;32.90;86.90;;;;;;5071063;28;20040;-63
2021/06/18 10:09:10;;;;;;;8.80;5.40;;;33.00;86.00;;;;;;5071760;28;20112;-63
2021/06/18 10:11:41;;;;;;;10.15;5.75;;;33.20;84.90;;;;;;5070803;28;20436;-63
2021/06/18 10:14:07;;;;;;;10.45;5.93;;;33.40;85.10;;;;;;5070734;28;20032;-63
2021/06/18 10:16:33;;;;;;;11.10;6.07;;;33.70;84.30;;;;;;5070783;28;20116;-61
2021/06/18 10:19:01;;;;;;;11.13;6.07;;;33.60;84.10;;;;;;5070535;28;20457;-63
2021/06/18 10:21:29;;;;;;;7.43;5.63;;;33.90;83.90;;;;;;5071886;28;20028;-63
2021/06/18 10:24:02;;;;;;;8.50;5.47;;;33.60;84.40;;;;;;5070365;28;20036;-64
2021/06/18 10:26:29;;;;;;;9.20;5.40;;;33.80;83.00;;;;;;5070866;28;20081;-64
2021/06/18 10:28:59;;;;;;;12.80;5.10;;;34.00;82.60;;;;;;5070409;28;20029;-64
2021/06/18 10:31:31;;;;;;;9.50;5.68;;;33.60;81.60;;;;;;5071710;28;20045;-63
2021/06/18 10:34:39;;;;;;;9.48;5.45;;;33.80;82.40;;;;;;5071565;28;20028;-64
2021/06/18 10:37:31;;;;;;;8.90;5.85;;;33.60;82.90;;;;;;5058279;28;20037;-64
2021/06/18 10:40:10;;;;;;;8.75;6.10;;;33.50;83.20;;;;;;5070432;28;20044;-64
2021/06/18 10:42:36;;;;;;;8.38;5.75;;;33.60;82.50;;;;;;5072609;28;20068;-65
2021/06/18 10:45:03;;;;;;;7.75;5.35;;;33.80;82.70;;;;;;5075258;28;20071;-63
2021/06/18 10:47:34;;;;;;;8.55;5.75;;;34.00;82.50;;;;;;5075742;28;20036;-64
2021/06/18 10:50:00;;;;;;;9.38;6.03;;;34.00;82.10;;;;;;5075096;28;20036;-62
2021/06/18 10:52:39;;;;;;;11.68;6.25;;;33.80;82.60;;;;;;5074100;28;20047;-64
2021/06/18 10:55:06;;;;;;;8.73;5.90;;;33.80;82.60;;;;;;5074129;28;20137;-63
2021/06/18 10:57:32;;;;;;;11.13;6.50;;;33.50;83.20;;;;;;5074151;28;20158;-64
2021/06/18 11:00:09;;;;;;;9.57;6.18;;;33.50;84.00;;;;;;5075260;28;20127;-66
2021/06/18 11:02:41;;;;;;;9.90;6.05;;;33.50;83.50;;;;;;5074130;28;20044;-63
2021/06/18 11:05:14;;;;;;;10.52;6.00;;;33.10;84.00;;;;;;5073565;28;20418;-63
2021/06/18 11:07:42;;;;;;;8.85;5.72;;;33.10;84.60;;;;;;5075368;28;20115;-65
2021/06/18 11:10:20;;;;;;;12.48;6.28;;;33.20;83.90;;;;;;5075072;28;20086;-65
2021/06/18 11:13:07;;;;;;;12.02;6.03;;;33.20;84.00;;;;;;5075259;28;20037;-65
2021/06/18 11:15:33;;;;;;;12.07;6.15;;;33.20;83.70;;;;;;5073917;28;20033;-65
2021/06/18 11:21:00;;;;;;;8.07;5.97;;;33.00;85.10;;;;;;5069465;28;20505;-65
2021/06/18 11:23:35;;;;;;;8.80;6.45;;;33.20;84.90;;;;;;5074032;28;20033;-65
2021/06/18 11:26:08;;;;;;;9.40;5.53;;;33.20;84.90;;;;;;5074887;28;20074;-65
2021/06/18 11:28:38;;;;;;;10.52;5.85;;;33.30;85.10;;;;;;5074879;28;20020;-64
2021/06/18 11:31:37;;;;;;;7.00;5.85;;;33.60;84.10;;;;;;5056526;28;20044;-64
2021/06/18 11:34:03;;;;;;;8.43;6.20;;;33.80;82.80;;;;;;5074699;28;20052;-64
2021/06/18 11:36:37;;;;;;;9.60;5.50;;;33.80;82.20;;;;;;5074701;28;20112;-64
2021/06/18 11:39:09;;;;;;;7.43;5.70;;;33.80;82.30;;;;;;5074652;28;20115;-64
2021/06/18 11:41:42;;;;;;;6.97;5.68;;;34.10;81.60;;;;;;5074369;28;20028;-64
2021/06/18 11:44:11;;;;;;;9.55;5.15;;;34.20;80.70;;;;;;5074226;28;20031;-65
2021/06/18 11:46:37;;;;;;;10.70;5.72;;;34.10;80.50;;;;;;5062222;28;20029;-65
2021/06/18 11:49:18;;;;;;;8.80;5.18;;;33.90;79.70;;;;;;5057366;28;20465;-64
2021/06/18 11:51:45;;;;;;;8.27;5.50;;;33.80;80.10;;;;;;5072942;28;20058;-65
2021/06/18 11:54:25;;;;;;;10.07;5.70;;;34.00;80.90;;;;;;5073350;28;20041;-66
2021/06/18 11:57:12;;;;;;;8.98;4.75;;;34.20;79.10;;;;;;5073624;28;20025;-66
2021/06/18 11:59:41;;;;;;;8.48;5.10;;;34.40;77.40;;;;;;5074560;28;20040;-65
2021/06/18 12:02:17;;;;;;;6.22;4.72;;;34.40;77.20;;;;;;5073674;28;20025;-65
2021/06/18 12:04:43;;;;;;;5.93;4.50;;;34.00;76.40;;;;;;5074283;28;20029;-65
2021/06/18 12:07:09;;;;;;;9.18;4.95;;;34.40;76.90;;;;;;5073923;28;20028;-65
2021/06/18 12:09:42;;;;;;;15.68;4.97;;;34.10;76.10;;;;;;5074312;28;20131;-65
2021/06/18 12:12:09;;;;;;;11.18;4.70;;;34.10;74.90;;;;;;5073631;28;20028;-65
2021/06/18 12:14:43;;;;;;;8.38;4.57;;;34.30;75.50;;;;;;5072714;28;20032;-65
2021/06/18 12:17:09;;;;;;;8.10;4.53;;;34.60;75.00;;;;;;5072216;28;20535;-64
2021/06/18 12:19:43;;;;;;;7.30;4.53;;;35.00;73.70;;;;;;5073922;28;20029;-63
2021/06/18 12:22:14;;;;;;;7.05;4.45;;;35.00;73.10;;;;;;5073157;28;20531;-65
2021/06/18 12:24:40;;;;;;;6.95;4.25;;;35.10;72.40;;;;;;5072284;28;20036;-63
2021/06/18 12:27:15;;;;;;;9.15;4.30;;;34.70;73.60;;;;;;5073644;28;20045;-66
2021/06/18 12:29:58;;;;;;;5.43;4.13;;;35.30;73.20;;;;;;5072044;28;20032;-66
2021/06/18 12:32:33;;;;;;;7.38;4.03;;;34.30;73.20;;;;;;5073523;28;20423;-66
2021/06/18 12:35:03;;;;;;;8.15;4.93;;;34.80;73.10;;;;;;5072257;28;20123;-66
2021/06/18 12:37:33;;;;;;;5.40;4.18;;;35.20;72.30;;;;;;5073042;28;20112;-66
2021/06/18 12:40:05;;;;;;;8.50;4.25;;;35.60;70.30;;;;;;5073691;28;20047;-66
2021/06/18 12:42:49;;;;;;;6.80;4.50;;;35.30;70.50;;;;;;5073273;28;20028;-66
2021/06/18 12:45:31;;;;;;;6.85;4.75;;;35.40;72.40;;;;;;5072992;28;20025;-66
2021/06/18 12:48:24;;;;;;;8.93;4.55;;;35.60;70.50;;;;;;5071650;28;20040;-66
2021/06/18 12:50:53;;;;;;;7.18;4.95;;;35.50;70.30;;;;;;5073085;28;20031;-66
2021/06/18 12:53:31;;;;;;;7.53;5.55;;;35.50;70.80;;;;;;5071970;28;20033;-65
2021/06/18 12:56:18;;;;;;;6.30;3.97;;;35.70;71.50;;;;;;5071452;28;20043;-66
2021/06/18 12:58:47;;;;;;;6.75;4.97;;;36.30;69.60;;;;;;5073223;28;20044;-65
2021/06/18 13:01:21;;;;;;;8.27;5.20;;;36.40;70.00;;;;;;5072720;28;20427;-66
2021/06/18 13:03:49;;;;;;;7.00;5.05;;;36.30;70.50;;;;;;5071490;28;20122;-66